Terminal Aerodrome Forecast
Issued by NWS Wilmington, OH

Current Version | Previous Version | Text Only | Print | Product List | Glossary Off
Versions: 1 2 3 4 5 6 7 8 9 10 11 12 13 14 15 16 17 18 19 20 21 22 23 24 25

000
FTUS41 KILN 232300 RRA
TAFDAY
TAF
KDAY 232344Z 2400/2424 14018G28KT 4SM -SHRA BR SCT015 OVC025
      TEMPO 2401/2403 2SM SHRA BR OVC015
     FM240400 17015G25KT 5SM -SHRA BR OVC008
     FM240800 21015G25KT P6SM VCSH OVC008
     FM241200 21018G32KT 5SM -SHRA BR SCT012 OVC022
     FM241600 24026G40KT 5SM -SHRA BR SCT012 OVC022
     FM241800 24024G36KT P6SM VCSH BKN025=

USA.gov is the U.S. government's official web portal to all federal, state and local government web resources and services.